createdAt,value
2022-08-14T00:03:41.937Z,3.10
2022-08-14T00:22:44.725Z,3.30
2022-08-14T00:41:01.108Z,4.00
2022-08-14T00:59:40.529Z,4.90
2022-08-14T01:18:18.458Z,5.20
2022-08-14T01:36:59.542Z,3.30
2022-08-14T01:55:35.651Z,4.50
2022-08-14T02:14:15.608Z,3.20
2022-08-14T02:51:34.332Z,6.30
2022-08-14T03:10:27.301Z,6.50
2022-08-14T03:28:49.003Z,5.60
2022-08-14T03:47:46.725Z,3.80
2022-08-14T04:24:54.711Z,4.60
2022-08-14T04:43:38.927Z,6.00
2022-08-14T05:02:08.541Z,6.10
2022-08-14T05:21:10.780Z,4.40
2022-08-14T05:39:29.556Z,3.30
2022-08-14T05:58:10.864Z,4.70
2022-08-14T06:16:53.514Z,4.20
2022-08-14T06:35:34.030Z,4.70
2022-08-14T07:12:56.586Z,3.60
2022-08-14T07:31:30.082Z,3.30
2022-08-14T07:50:18.687Z,2.60
2022-08-14T08:27:35.994Z,2.30
2022-08-14T14:42:36.516Z,1.10
2022-08-14T15:01:11.194Z,1.10
2022-08-14T15:19:56.633Z,1.20
2022-08-14T15:38:32.188Z,1.20
2022-08-14T16:34:45.285Z,1.00
2022-08-14T16:53:01.985Z,0.50
2022-08-14T17:30:32.103Z,1.30
2022-08-14T17:49:10.987Z,1.40
2022-08-14T18:07:50.935Z,1.50
2022-08-14T18:25:49.174Z,1.10
2022-08-14T18:44:28.107Z,1.30
2022-08-14T19:03:03.024Z,1.90
2022-08-14T19:21:42.623Z,2.30
2022-08-14T19:40:22.744Z,1.50
2022-08-14T19:58:57.491Z,1.80
2022-08-14T20:17:40.259Z,2.80
2022-08-14T20:36:11.299Z,1.80
2022-08-14T20:54:50.811Z,2.10
2022-08-14T21:14:18.868Z,1.90
2022-08-14T22:27:58.841Z,2.30
2022-08-14T22:46:37.444Z,2.40
2022-08-14T23:05:15.457Z,2.90
2022-08-14T23:23:55.879Z,2.40
2022-08-14T23:42:39.860Z,2.80
